createdAt,value
2023-02-08T00:01:00.701Z,104075.81
2023-02-08T00:03:29.198Z,104070.81
2023-02-08T00:05:56.509Z,104066.56
2023-02-08T00:08:23.896Z,104063.38
2023-02-08T00:10:53.575Z,104057.28
2023-02-08T00:13:20.840Z,104058.38
2023-02-08T00:15:48.200Z,104053.19
2023-02-08T00:18:15.589Z,104043.78
2023-02-08T00:20:43.706Z,104045.00
2023-02-08T00:23:12.344Z,104043.50
2023-02-08T00:25:41.929Z,104043.84
2023-02-08T00:28:14.692Z,104040.53
2023-02-08T00:30:44.211Z,104044.19
2023-02-08T00:33:13.620Z,104042.31
2023-02-08T00:35:42.722Z,104042.31
2023-02-08T00:38:10.220Z,104044.19
2023-02-08T00:40:38.625Z,104040.66
2023-02-08T00:43:07.069Z,104039.75
2023-02-08T00:45:35.344Z,104045.69
2023-02-08T00:48:03.653Z,104046.44
2023-02-08T00:50:31.022Z,104052.34
2023-02-08T00:52:59.846Z,104047.75
2023-02-08T00:55:27.534Z,104052.03
2023-02-08T00:57:55.356Z,104047.59
2023-02-08T01:00:22.975Z,104053.53
2023-02-08T01:02:50.243Z,104056.88
2023-02-08T01:05:18.079Z,104045.63
2023-02-08T01:07:45.452Z,104051.38
2023-02-08T01:10:13.147Z,104049.53
2023-02-08T01:12:42.537Z,104035.53
2023-02-08T01:15:10.355Z,104037.22
2023-02-08T01:17:39.493Z,104035.38
2023-02-08T01:20:07.869Z,104031.13
2023-02-08T01:22:36.421Z,104032.06
2023-02-08T01:25:04.174Z,104038.13
2023-02-08T01:27:33.497Z,104033.69
2023-02-08T01:30:00.982Z,104044.03
2023-02-08T01:32:28.934Z,104043.13
2023-02-08T01:34:56.458Z,104035.22
2023-02-08T01:37:24.145Z,104048.91
2023-02-08T01:39:51.471Z,104047.06
2023-02-08T01:42:21.928Z,104047.81
2023-02-08T01:45:21.092Z,104040.81
2023-02-08T01:47:53.778Z,104045.97
2023-02-08T01:50:26.750Z,104039.75
2023-02-08T01:52:54.057Z,104050.06
2023-02-08T01:55:32.032Z,104051.75
2023-02-08T01:58:03.663Z,104045.50
2023-02-08T02:00:32.654Z,104042.75
2023-02-08T02:03:01.728Z,104050.50
2023-02-08T02:05:38.801Z,104045.16
2023-02-08T02:08:06.936Z,104045.94
2023-02-08T02:10:37.022Z,104043.19
2023-02-08T02:13:12.065Z,104037.06
2023-02-08T02:15:45.004Z,104037.84
2023-02-08T02:18:19.453Z,104030.84
2023-02-08T02:21:33.064Z,104034.19
2023-02-08T02:24:38.008Z,104032.50
2023-02-08T02:27:11.301Z,104037.50
2023-02-08T02:30:17.096Z,104035.88
2023-02-08T02:32:50.869Z,104029.94
2023-02-08T02:35:18.188Z,104023.69
2023-02-08T02:38:10.358Z,104024.44
2023-02-08T02:41:04.752Z,104024.28
2023-02-08T02:43:52.168Z,104019.88
2023-02-08T02:46:35.327Z,104011.94
2023-02-08T02:49:04.885Z,104016.38
2023-02-08T02:51:54.394Z,104021.53
2023-02-08T02:54:35.124Z,104017.09
2023-02-08T02:57:05.946Z,104012.88
2023-02-08T02:59:38.859Z,104005.69
2023-02-08T03:02:06.194Z,104002.94
2023-02-08T03:04:33.490Z,104015.88
2023-02-08T03:07:10.111Z,104002.81
2023-02-08T03:10:08.472Z,104001.88
2023-02-08T03:13:25.825Z,103994.91
2023-02-08T03:16:19.708Z,103998.97
2023-02-08T03:19:12.195Z,103993.03
2023-02-08T03:22:24.993Z,104008.53
2023-02-08T03:24:54.767Z,104009.44
2023-02-08T03:27:32.997Z,104010.22
2023-02-08T03:30:13.883Z,104004.88
2023-02-08T03:32:44.142Z,103998.81
2023-02-08T03:35:15.374Z,104001.41
2023-02-08T03:37:48.151Z,104005.78
2023-02-08T03:40:24.755Z,104007.63
2023-02-08T03:42:54.483Z,103999.88
2023-02-08T03:45:40.993Z,104007.63
2023-02-08T03:48:11.356Z,104011.72
2023-02-08T03:50:59.779Z,104014.13
2023-02-08T03:53:28.493Z,104021.72
2023-02-08T03:56:04.578Z,104018.97
2023-02-08T03:58:38.833Z,104019.72
2023-02-08T04:01:13.413Z,104019.38
2023-02-08T04:03:44.458Z,104017.56
2023-02-08T04:06:11.982Z,104017.41
2023-02-08T04:08:39.659Z,104017.41
2023-02-08T04:11:07.051Z,104005.22
2023-02-08T04:13:34.298Z,104004.16
2023-02-08T04:16:01.632Z,103996.41
2023-02-08T04:18:28.948Z,103995.34
2023-02-08T04:20:56.227Z,103996.09
2023-02-08T04:23:23.488Z,103987.28
2023-02-08T04:25:52.330Z,103985.59
2023-02-08T04:28:20.101Z,103985.44
2023-02-08T04:30:47.946Z,104004.59
2023-02-08T04:33:15.670Z,103998.50
2023-02-08T04:35:43.589Z,104000.50
2023-02-08T04:38:11.246Z,103998.25
2023-02-08T04:40:38.669Z,103997.50
2023-02-08T04:43:06.097Z,103997.50
2023-02-08T04:45:33.438Z,103993.81
2023-02-08T04:48:02.144Z,104008.06
2023-02-08T04:50:29.941Z,104007.16
2023-02-08T04:52:57.217Z,104005.19
2023-02-08T04:55:24.714Z,104007.25
2023-02-08T04:57:52.075Z,104010.78
2023-02-08T05:00:19.947Z,104011.50
2023-02-08T05:02:47.982Z,104011.34
2023-02-08T05:05:15.486Z,104011.94
2023-02-08T05:07:42.885Z,104012.66
2023-02-08T05:10:10.242Z,104016.19
2023-02-08T05:12:37.689Z,104011.03
2023-02-08T05:15:05.227Z,104003.84
2023-02-08T05:17:33.726Z,104002.75
2023-02-08T05:20:03.610Z,104007.75
2023-02-08T05:22:32.223Z,104002.41
2023-02-08T05:24:59.652Z,104002.28
2023-02-08T05:27:27.087Z,103999.34
2023-02-08T05:29:58.072Z,103994.19
2023-02-08T05:32:28.127Z,104003.91
2023-02-08T05:34:55.516Z,103995.28
2023-02-08T05:37:22.811Z,103991.78
2023-02-08T05:39:50.270Z,103995.28
2023-02-08T05:42:17.512Z,103995.88
2023-02-08T05:44:44.805Z,104004.53
2023-02-08T05:47:12.114Z,103999.34
2023-02-08T05:49:39.460Z,103999.34
2023-02-08T05:52:07.228Z,104004.53
2023-02-08T05:54:34.493Z,104001.94
2023-02-08T05:57:02.277Z,103994.94
2023-02-08T05:59:29.934Z,103990.53
2023-02-08T06:01:57.224Z,103985.38
2023-02-08T06:04:24.793Z,103989.75
2023-02-08T06:06:52.457Z,103988.84
2023-02-08T06:09:19.808Z,103992.34
2023-02-08T06:11:47.411Z,103994.38
2023-02-08T06:14:14.766Z,103993.78
2023-02-08T06:16:44.764Z,103989.50
2023-02-08T06:19:13.413Z,103985.59
2023-02-08T06:21:44.557Z,103981.22
2023-02-08T06:24:12.327Z,103996.88
2023-02-08T06:26:40.448Z,103990.75
2023-02-08T06:29:07.801Z,103989.13
2023-02-08T06:31:35.989Z,103993.34
2023-02-08T06:34:03.334Z,103992.44
2023-02-08T06:36:30.575Z,103995.19
2023-02-08T06:38:57.808Z,103989.84
2023-02-08T06:41:25.280Z,103995.19
2023-02-08T06:43:52.945Z,103995.19
2023-02-08T06:46:20.268Z,103996.09
2023-02-08T06:48:47.564Z,103996.28
2023-02-08T06:51:14.837Z,103985.22
2023-02-08T06:53:42.636Z,103989.59
2023-02-08T06:56:10.029Z,103992.78
2023-02-08T06:58:38.063Z,103985.78
2023-02-08T07:01:06.571Z,104004.75
2023-02-08T07:03:34.607Z,103995.19
2023-02-08T07:06:05.301Z,103996.09
2023-02-08T07:08:33.958Z,104008.28
2023-02-08T07:11:07.151Z,104000.69
2023-02-08T07:13:34.613Z,104005.09
2023-02-08T07:16:04.147Z,103996.44
2023-02-08T07:18:33.892Z,104002.50
2023-02-08T07:21:01.490Z,103998.25
2023-02-08T07:23:28.827Z,104000.09
2023-02-08T07:26:04.804Z,103988.88
2023-02-08T07:28:36.621Z,103984.00
2023-02-08T07:31:10.565Z,103975.38
2023-02-08T07:33:38.884Z,103967.03
2023-02-08T07:36:07.768Z,103974.94
2023-02-08T07:38:35.717Z,103960.34
2023-02-08T07:41:06.232Z,103956.44
2023-02-08T07:43:35.987Z,103954.03
2023-02-08T07:46:08.365Z,103956.78
2023-02-08T07:48:37.494Z,103945.84
2023-02-08T07:51:06.788Z,103943.44
2023-02-08T07:53:34.385Z,103932.50
2023-02-08T07:56:01.736Z,103934.53
2023-02-08T07:58:29.560Z,103939.84
2023-02-08T08:00:56.834Z,103943.50
2023-02-08T08:03:24.866Z,103937.75
2023-02-08T08:05:54.755Z,103935.66
2023-02-08T08:08:22.312Z,103931.56
2023-02-08T08:10:49.654Z,103928.38
2023-02-08T08:13:16.978Z,103933.13
2023-02-08T08:15:44.422Z,103932.84
2023-02-08T08:18:11.760Z,103929.25
2023-02-08T08:20:39.370Z,103929.72
2023-02-08T08:23:07.048Z,103930.34
2023-02-08T08:25:34.253Z,103930.22
2023-02-08T08:28:01.855Z,103923.09
2023-02-08T08:30:29.158Z,103917.66
2023-02-08T08:32:56.496Z,103914.94
2023-02-08T08:35:23.802Z,103906.91
2023-02-08T08:37:50.993Z,103904.03
2023-02-08T08:40:18.437Z,103908.75
2023-02-08T08:42:45.736Z,103910.75
2023-02-08T08:45:13.031Z,103901.66
2023-02-08T08:47:41.000Z,103902.09
2023-02-08T08:50:08.990Z,103901.66
2023-02-08T08:52:36.346Z,103909.13
2023-02-08T08:55:03.638Z,103906.56
2023-02-08T08:57:32.960Z,103916.91
2023-02-08T09:00:00.248Z,103912.66
2023-02-08T09:02:27.708Z,103913.41
2023-02-08T09:04:55.076Z,103923.03
2023-02-08T09:07:22.627Z,103921.22
2023-02-08T09:09:50.089Z,103926.22
2023-02-08T09:12:17.390Z,103924.25
2023-02-08T09:14:47.577Z,103919.84
2023-02-08T09:17:14.843Z,103918.75
2023-02-08T09:19:42.701Z,103919.38
2023-02-08T09:22:10.060Z,103926.03
2023-02-08T09:24:37.672Z,103927.56
2023-02-08T09:27:05.142Z,103933.66
2023-02-08T09:29:34.386Z,103937.91
2023-02-08T09:32:01.792Z,103948.38
2023-02-08T09:34:29.028Z,103947.47
2023-02-08T09:36:57.100Z,103951.69
2023-02-08T09:39:25.376Z,103940.38
2023-02-08T09:42:29.036Z,103943.84
2023-02-08T09:45:08.497Z,103953.28
2023-02-08T09:47:39.428Z,103951.41
2023-02-08T09:50:36.298Z,103953.94
2023-02-08T09:53:35.140Z,103953.13
2023-02-08T09:56:07.429Z,103948.66
2023-02-08T09:58:47.095Z,103963.28
2023-02-08T10:01:21.632Z,103959.72
2023-02-08T10:03:51.944Z,103951.59
2023-02-08T10:06:20.498Z,103957.50
2023-02-08T10:08:52.455Z,103952.59
2023-02-08T10:11:45.917Z,103952.41
2023-02-08T10:14:22.047Z,103955.53
2023-02-08T10:17:11.025Z,103942.38
2023-02-08T10:20:03.375Z,103946.56
2023-02-08T10:22:48.874Z,103941.31
2023-02-08T10:25:37.186Z,103941.19
2023-02-08T10:28:07.108Z,103950.47
2023-02-08T10:30:49.837Z,103940.50
2023-02-08T10:33:37.358Z,103937.38
2023-02-08T10:36:15.053Z,103933.81
2023-02-08T10:38:46.691Z,103923.81
2023-02-08T10:41:20.302Z,103930.34
2023-02-08T10:44:20.356Z,103923.06
2023-02-08T10:46:50.893Z,103926.34
2023-02-08T10:49:58.313Z,103922.75
2023-02-08T10:52:25.859Z,103915.47
2023-02-08T10:54:53.277Z,103914.44
2023-02-08T10:57:26.240Z,103907.97
2023-02-08T11:00:00.550Z,103916.81
2023-02-08T11:02:39.901Z,103909.41
2023-02-08T11:05:13.472Z,103916.72
2023-02-08T11:07:42.524Z,103901.63
2023-02-08T11:10:19.022Z,103892.53
2023-02-08T11:12:59.020Z,103881.75
2023-02-08T11:15:48.689Z,103883.00
2023-02-08T11:18:21.524Z,103882.63
2023-02-08T11:20:52.125Z,103869.75
2023-02-08T11:23:30.397Z,103871.06
2023-02-08T11:26:19.846Z,103867.94
2023-02-08T11:29:11.981Z,103872.59
2023-02-08T11:31:42.068Z,103868.56
2023-02-08T11:34:11.975Z,103856.72
2023-02-08T11:36:48.151Z,103858.94
2023-02-08T11:39:29.662Z,103860.09
2023-02-08T11:42:01.586Z,103853.59
2023-02-08T11:44:31.487Z,103850.44
2023-02-08T11:47:05.199Z,103844.84
2023-02-08T11:49:39.313Z,103846.22
2023-02-08T11:52:29.337Z,103845.81
2023-02-08T11:55:26.661Z,103833.19
2023-02-08T11:58:03.072Z,103831.84
2023-02-08T12:00:37.763Z,103829.75
2023-02-08T12:03:18.419Z,103833.63
2023-02-08T12:06:03.345Z,103834.03
2023-02-08T12:08:44.099Z,103823.19
2023-02-08T12:11:29.334Z,103825.50
2023-02-08T12:14:12.553Z,103818.94
2023-02-08T12:16:54.921Z,103812.66
2023-02-08T12:19:35.433Z,103818.22
2023-02-08T12:22:26.743Z,103822.09
2023-02-08T12:25:21.745Z,103818.25
2023-02-08T12:27:51.936Z,103811.72
2023-02-08T12:30:34.514Z,103808.97
2023-02-08T12:33:38.696Z,103796.97
2023-02-08T12:36:09.142Z,103804.91
2023-02-08T12:39:19.145Z,103806.75
2023-02-08T12:42:13.017Z,103799.97
2023-02-08T12:45:02.145Z,103793.16
2023-02-08T12:48:03.998Z,103792.47
2023-02-08T12:50:40.715Z,103796.09
2023-02-08T12:53:37.955Z,103788.53
2023-02-08T12:56:14.184Z,103784.22
2023-02-08T12:58:55.038Z,103773.13
2023-02-08T13:01:41.329Z,103765.63
2023-02-08T13:04:27.341Z,103772.00
2023-02-08T13:07:01.480Z,103757.25
2023-02-08T13:09:35.869Z,103761.44
2023-02-08T13:12:15.118Z,103751.00
2023-02-08T13:14:57.590Z,103750.88
2023-02-08T13:17:28.818Z,103749.97
2023-02-08T13:20:05.039Z,103737.63
2023-02-08T13:22:37.441Z,103741.13
2023-02-08T13:25:14.880Z,103734.06
2023-02-08T13:27:44.790Z,103728.78
2023-02-08T13:30:19.873Z,103732.16
2023-02-08T13:32:50.713Z,103736.34
2023-02-08T13:35:24.827Z,103716.16
2023-02-08T13:37:59.860Z,103711.72
2023-02-08T13:40:30.362Z,103705.72
2023-02-08T13:43:09.360Z,103697.91
2023-02-08T13:45:42.830Z,103690.84
2023-02-08T13:48:17.116Z,103688.38
2023-02-08T13:50:51.962Z,103689.16
2023-02-08T13:53:39.542Z,103673.38
2023-02-08T13:56:13.345Z,103667.25
2023-02-08T13:58:49.360Z,103657.63
2023-02-08T14:01:19.860Z,103654.22
2023-02-08T14:04:09.870Z,103647.19
2023-02-08T14:06:56.475Z,103647.06
2023-02-08T14:09:54.920Z,103654.09
2023-02-08T14:12:52.991Z,103644.34
2023-02-08T14:15:23.124Z,103638.22
2023-02-08T14:17:58.373Z,103635.63
2023-02-08T14:20:29.189Z,103633.91
2023-02-08T14:23:00.301Z,103639.00
2023-02-08T14:25:38.450Z,103628.56
2023-02-08T14:28:07.087Z,103634.59
2023-02-08T14:30:39.842Z,103629.38
2023-02-08T14:33:08.030Z,103619.72
2023-02-08T14:35:39.750Z,103616.34
2023-02-08T14:38:19.489Z,103618.69
2023-02-08T14:40:47.486Z,103616.88
2023-02-08T14:43:23.067Z,103620.41
2023-02-08T14:45:52.874Z,103613.25
2023-02-08T14:48:43.965Z,103611.56
2023-02-08T14:51:11.497Z,103608.84
2023-02-08T14:53:45.892Z,103601.00
2023-02-08T14:56:31.969Z,103601.69
2023-02-08T14:59:11.487Z,103591.91
2023-02-08T15:01:53.053Z,103589.31
2023-02-08T15:04:23.966Z,103586.59
2023-02-08T15:07:26.911Z,103579.44
2023-02-08T15:09:54.657Z,103567.19
2023-02-08T15:12:43.956Z,103557.44
2023-02-08T15:15:25.067Z,103547.69
2023-02-08T15:17:54.844Z,103544.97
2023-02-08T15:20:29.797Z,103547.47
2023-02-08T15:23:19.308Z,103556.88
2023-02-08T15:26:01.318Z,103552.22
2023-02-08T15:28:31.050Z,103553.00
2023-02-08T15:31:06.002Z,103546.56
2023-02-08T15:33:34.193Z,103556.97
2023-02-08T15:36:15.199Z,103552.31
2023-02-08T15:38:46.316Z,103553.78
2023-02-08T15:41:23.904Z,103540.41
2023-02-08T15:43:51.414Z,103537.53
2023-02-08T15:46:26.053Z,103541.53
2023-02-08T15:48:54.790Z,103535.94
2023-02-08T15:51:24.387Z,103538.22
2023-02-08T15:53:54.580Z,103541.47
2023-02-08T15:56:38.443Z,103536.81
2023-02-08T15:59:15.286Z,103526.81
2023-02-08T16:01:47.510Z,103531.81
2023-02-08T16:04:16.293Z,103517.53
2023-02-08T16:06:56.011Z,103522.41
2023-02-08T16:09:27.466Z,103535.84
2023-02-08T16:12:00.346Z,103531.16
2023-02-08T16:14:30.217Z,103524.72
2023-02-08T16:16:58.858Z,103515.63
2023-02-08T16:19:33.814Z,103507.34
2023-02-08T16:22:28.612Z,103512.03
2023-02-08T16:25:24.627Z,103497.78
2023-02-08T16:27:53.346Z,103503.53
2023-02-08T16:30:22.151Z,103508.38
2023-02-08T16:32:50.107Z,103500.97
2023-02-08T16:35:27.574Z,103501.28
2023-02-08T16:37:59.316Z,103501.81
2023-02-08T16:40:51.481Z,103509.16
2023-02-08T16:43:29.778Z,103507.09
2023-02-08T16:46:25.428Z,103508.41
2023-02-08T16:48:56.752Z,103500.34
2023-02-08T16:51:27.931Z,103504.28
2023-02-08T16:54:00.729Z,103483.91
2023-02-08T16:56:28.519Z,103488.47
2023-02-08T16:58:55.813Z,103493.16
2023-02-08T17:01:26.390Z,103479.94
2023-02-08T17:03:53.975Z,103485.66
2023-02-08T17:06:29.072Z,103477.75
2023-02-08T17:08:58.038Z,103476.56
2023-02-08T17:11:25.632Z,103483.34
2023-02-08T17:13:53.018Z,103474.63
2023-02-08T17:16:23.557Z,103477.13
2023-02-08T17:18:51.003Z,103474.25
2023-02-08T17:21:18.576Z,103485.31
2023-02-08T17:23:46.221Z,103475.56
2023-02-08T17:26:20.433Z,103461.31
2023-02-08T17:28:48.378Z,103458.31
2023-02-08T17:31:16.161Z,103456.25
2023-02-08T17:33:45.019Z,103461.84
2023-02-08T17:36:15.230Z,103465.88
2023-02-08T17:38:44.518Z,103460.31
2023-02-08T17:41:20.901Z,103459.16
2023-02-08T17:43:53.549Z,103460.59
2023-02-08T17:46:26.327Z,103439.41
2023-02-08T17:48:54.324Z,103449.69
2023-02-08T17:51:24.149Z,103437.19
2023-02-08T17:53:51.827Z,103440.47
2023-02-08T17:56:22.235Z,103433.06
2023-02-08T17:58:53.414Z,103432.69
2023-02-08T18:01:27.003Z,103433.19
2023-02-08T18:03:55.202Z,103422.56
2023-02-08T18:06:25.099Z,103425.81
2023-02-08T18:08:53.982Z,103418.53
2023-02-08T18:11:23.599Z,103421.78
2023-02-08T18:13:53.427Z,103421.66
2023-02-08T18:16:26.589Z,103430.25
2023-02-08T18:18:59.423Z,103424.00
2023-02-08T18:21:27.264Z,103424.78
2023-02-08T18:23:55.656Z,103422.19
2023-02-08T18:26:24.920Z,103427.38
2023-02-08T18:28:52.571Z,103417.00
2023-02-08T18:31:21.162Z,103411.81
2023-02-08T18:33:49.995Z,103413.38
2023-02-08T18:36:18.007Z,103413.09
2023-02-08T18:38:47.468Z,103406.88
2023-02-08T18:41:24.257Z,103416.22
2023-02-08T18:43:53.362Z,103411.81
2023-02-08T18:46:22.529Z,103413.47
2023-02-08T18:48:51.006Z,103416.22
2023-02-08T18:51:19.847Z,103418.94
2023-02-08T18:53:50.922Z,103417.13
2023-02-08T18:56:23.001Z,103407.41
2023-02-08T18:58:54.743Z,103414.81
2023-02-08T19:01:24.267Z,103411.81
2023-02-08T19:03:52.141Z,103409.72
2023-02-08T19:06:25.575Z,103415.31
2023-02-08T19:08:55.110Z,103415.69
2023-02-08T19:11:25.736Z,103413.63
2023-02-08T19:13:55.307Z,103410.50
2023-02-08T19:16:24.580Z,103402.81
2023-02-08T19:18:56.572Z,103396.19
2023-02-08T19:21:24.356Z,103396.56
2023-02-08T19:23:53.729Z,103390.19
2023-02-08T19:26:22.808Z,103404.63
2023-02-08T19:28:51.771Z,103406.94
2023-02-08T19:31:22.597Z,103402.25
2023-02-08T19:33:58.506Z,103397.69
2023-02-08T19:36:29.106Z,103406.13
2023-02-08T19:38:57.606Z,103405.97
2023-02-08T19:41:28.828Z,103399.63
2023-02-08T19:43:56.180Z,103400.41
2023-02-08T19:46:25.561Z,103391.59
2023-02-08T19:48:59.984Z,103398.19
2023-02-08T19:51:30.450Z,103381.31
2023-02-08T19:53:59.273Z,103380.13
2023-02-08T19:56:27.325Z,103379.09
2023-02-08T19:58:54.577Z,103375.47
2023-02-08T20:01:23.193Z,103383.88
2023-02-08T20:03:52.801Z,103385.16
2023-02-08T20:06:25.637Z,103384.88
2023-02-08T20:08:53.409Z,103383.06
2023-02-08T20:11:33.053Z,103366.63
2023-02-08T20:14:01.053Z,103375.28
2023-02-08T20:16:31.788Z,103365.44
2023-02-08T20:19:00.330Z,103377.47
2023-02-08T20:21:28.127Z,103368.66
2023-02-08T20:23:55.986Z,103363.47
2023-02-08T20:26:27.042Z,103361.66
2023-02-08T20:29:01.812Z,103362.28
2023-02-08T20:31:32.933Z,103370.69
2023-02-08T20:34:03.403Z,103374.03
2023-02-08T20:36:38.564Z,103372.09
2023-02-08T20:39:07.068Z,103366.63
2023-02-08T20:41:35.644Z,103370.03
2023-02-08T20:44:03.052Z,103374.16
2023-02-08T20:46:35.286Z,103364.41
2023-02-08T20:49:04.984Z,103365.97
2023-02-08T20:51:34.408Z,103362.47
2023-02-08T20:54:03.424Z,103355.50
2023-02-08T20:56:35.819Z,103353.66
2023-02-08T20:59:16.756Z,103348.34
2023-02-08T21:01:46.505Z,103343.94
2023-02-08T21:04:14.145Z,103347.94
2023-02-08T21:06:44.450Z,103346.09
2023-02-08T21:09:14.400Z,103346.09
2023-02-08T21:11:42.004Z,103335.59
2023-02-08T21:14:13.705Z,103338.09
2023-02-08T21:16:41.677Z,103334.47
2023-02-08T21:19:10.895Z,103335.84
2023-02-08T21:21:38.339Z,103345.03
2023-02-08T21:24:06.216Z,103330.09
2023-02-08T21:26:33.768Z,103342.94
2023-02-08T21:29:05.939Z,103341.09
2023-02-08T21:31:38.850Z,103347.03
2023-02-08T21:34:07.684Z,103340.69
2023-02-08T21:36:35.482Z,103335.38
2023-02-08T21:39:03.943Z,103332.66
2023-02-08T21:41:34.021Z,103331.47
2023-02-08T21:44:04.342Z,103321.75
2023-02-08T21:46:33.186Z,103324.94
2023-02-08T21:49:19.879Z,103312.66
2023-02-08T21:52:07.013Z,103322.72
2023-02-08T21:54:41.979Z,103318.34
2023-02-08T21:57:29.592Z,103306.94
2023-02-08T21:59:58.673Z,103302.38
2023-02-08T22:02:29.657Z,103302.38
2023-02-08T22:04:59.049Z,103298.75
2023-02-08T22:07:27.239Z,103302.13
2023-02-08T22:09:54.914Z,103296.78
2023-02-08T22:12:23.041Z,103287.09
2023-02-08T22:14:50.969Z,103282.81
2023-02-08T22:17:18.838Z,103289.69
2023-02-08T22:19:46.210Z,103283.56
2023-02-08T22:22:13.633Z,103292.25
2023-02-08T22:24:41.231Z,103283.56
2023-02-08T22:27:09.073Z,103267.91
2023-02-08T22:29:36.379Z,103276.59
2023-02-08T22:32:05.381Z,103268.69
2023-02-08T22:34:33.834Z,103264.28
2023-02-08T22:37:03.825Z,103269.19
2023-02-08T22:39:32.993Z,103264.78
2023-02-08T22:42:00.298Z,103264.53
2023-02-08T22:44:27.736Z,103257.50
2023-02-08T22:46:56.112Z,103253.72
2023-02-08T22:49:23.810Z,103245.84
2023-02-08T22:51:51.001Z,103240.56
2023-02-08T22:54:19.074Z,103247.22
2023-02-08T22:56:46.276Z,103248.78
2023-02-08T22:59:13.524Z,103250.47
2023-02-08T23:01:41.479Z,103254.88
2023-02-08T23:04:08.860Z,103249.41
2023-02-08T23:06:36.157Z,103242.41
2023-02-08T23:09:05.599Z,103247.47
2023-02-08T23:11:33.554Z,103241.38
2023-02-08T23:14:00.854Z,103238.53
2023-02-08T23:16:28.068Z,103237.47
2023-02-08T23:18:56.925Z,103233.84
2023-02-08T23:21:24.223Z,103227.00
2023-02-08T23:23:53.506Z,103227.88
2023-02-08T23:26:22.031Z,103225.31
2023-02-08T23:28:53.765Z,103234.59
2023-02-08T23:31:21.559Z,103223.34
2023-02-08T23:33:49.816Z,103232.66
2023-02-08T23:36:21.351Z,103225.78
2023-02-08T23:38:50.142Z,103228.38
2023-02-08T23:41:21.432Z,103230.97
2023-02-08T23:43:50.467Z,103223.97
2023-02-08T23:46:18.995Z,103228.25
2023-02-08T23:48:47.917Z,103218.69
2023-02-08T23:51:17.285Z,103222.03
2023-02-08T23:53:45.128Z,103213.22
2023-02-08T23:56:12.431Z,103213.06
2023-02-08T23:58:39.779Z,103209.44
